地図

経路データ

SID SEASON NUMBER BASIN SUBBASIN NAME ISO_TIME NATURE LAT LON WMO_WIND WMO_PRES WMO_AGENCY TRACK_TYPE DIST2LAND LANDFALL IFLAG USA_AGENCY USA_ATCF_ID USA_LAT USA_LON USA_RECORD USA_STATUS USA_WIND USA_PRES USA_SSHS USA_R34_NE USA_R34_SE USA_R34_SW USA_R34_NW USA_R50_NE USA_R50_SE USA_R50_SW USA_R50_NW USA_R64_NE USA_R64_SE USA_R64_SW USA_R64_NW USA_POCI USA_ROCI USA_RMW USA_EYE TOKYO_LAT TOKYO_LON TOKYO_GRADE TOKYO_WIND TOKYO_PRES TOKYO_R50_DIR TOKYO_R50_LONG TOKYO_R50_SHORT TOKYO_R30_DIR TOKYO_R30_LONG TOKYO_R30_SHORT TOKYO_LAND CMA_LAT CMA_LON CMA_CAT CMA_WIND CMA_PRES HKO_LAT HKO_LON HKO_CAT HKO_WIND HKO_PRES NEWDELHI_LAT NEWDELHI_LON NEWDELHI_GRADE NEWDELHI_WIND NEWDELHI_PRES NEWDELHI_CI NEWDELHI_DP NEWDELHI_POCI REUNION_LAT REUNION_LON REUNION_TYPE REUNION_WIND REUNION_PRES REUNION_TNUM REUNION_CI REUNION_RMW REUNION_R34_NE REUNION_R34_SE REUNION_R34_SW REUNION_R34_NW REUNION_R50_NE REUNION_R50_SE REUNION_R50_SW REUNION_R50_NW REUNION_R64_NE REUNION_R64_SE REUNION_R64_SW REUNION_R64_NW BOM_LAT BOM_LON BOM_TYPE BOM_WIND BOM_PRES BOM_TNUM BOM_CI BOM_RMW BOM_R34_NE BOM_R34_SE BOM_R34_SW BOM_R34_NW BOM_R50_NE BOM_R50_SE BOM_R50_SW BOM_R50_NW BOM_R64_NE BOM_R64_SE BOM_R64_SW BOM_R64_NW BOM_ROCI BOM_POCI BOM_EYE BOM_POS_METHOD BOM_PRES_METHOD NADI_LAT NADI_LON NADI_CAT NADI_WIND NADI_PRES WELLINGTON_LAT WELLINGTON_LON WELLINGTON_WIND WELLINGTON_PRES DS824_LAT DS824_LON DS824_STAGE DS824_WIND DS824_PRES TD9636_LAT TD9636_LON TD9636_STAGE TD9636_WIND TD9636_PRES TD9635_LAT TD9635_LON TD9635_WIND TD9635_PRES TD9635_ROCI NEUMANN_LAT NEUMANN_LON NEUMANN_CLASS NEUMANN_WIND NEUMANN_PRES MLC_LAT MLC_LON MLC_CLASS MLC_WIND MLC_PRES USA_GUST BOM_GUST BOM_GUST_PER REUNION_GUST REUNION_GUST_PER USA_SEAHGT USA_SEARAD_NE USA_SEARAD_SE USA_SEARAD_SW USA_SEARAD_NW STORM_SPEED STORM_DIR
1954057S10061 1954 8 SI MM NOT_NAMED 1954-02-25 18:00:00 TS -10.4000 61.0000 main 1141 1061 O________OO___ jtwc_sh SH091954 -10.4000 61.0000 -1 -10.4000 61.0000 TC -10.4000 61.0000 7 22 242
1954057S10061 1954 8 SI MM NOT_NAMED 1954-02-25 21:00:00 TS -10.9082 60.0351 main 1058 986 P________PP___ SH091954 -10.9259 59.9933 -1 -10.9259 59.9933 TC -10.8729 60.1185 7 21 242
1954057S10061 1954 8 SI MM NOT_NAMED 1954-02-26 00:00:00 TS -11.3752 59.1594 main 986 932 O________OP___ jtwc_sh SH091954 -11.4000 59.1000 -1 -11.4000 59.1000 TC -11.3256 59.2781 7 18 241
1954057S10061 1954 8 SI MM NOT_NAMED 1954-02-26 03:00:00 TS -11.7716 58.4477 main 927 866 P________PP___ SH091954 -11.7872 58.4097 -1 -11.7872 58.4097 TC -11.7404 58.5236 7 14 240
1954057S10061 1954 8 SI MM NOT_NAMED 1954-02-26 06:00:00 TS -12.1000 57.9000 main 866 817 O________OO___ jtwc_sh SH091954 -12.1000 57.9000 -1 -12.1000 57.9000 TC 25 -12.1000 57.9000 1 11 237
1954057S10061 1954 8 SI MM NOT_NAMED 1954-02-26 09:00:00 TS -12.3793 57.4820 main 817 779 P________PP___ SH091954 -12.3723 57.5048 -1 -12.3723 57.5048 TC 25 -12.3934 57.4364 1 9 235
1954057S10061 1954 8 SI MM NOT_NAMED 1954-02-26 12:00:00 TS -12.6103 57.1663 main 779 741 O________OP___ jtwc_sh SH091954 -12.6000 57.2000 -1 -12.6000 57.2000 TC 25 -12.6309 57.0988 1 7 234
1954057S10061 1954 8 SI MM NOT_NAMED 1954-02-26 15:00:00 TS -12.8193 56.8689 main 741 702 P________PP___ SH091954 -12.8150 56.8850 -1 -12.8150 56.8850 TC 25 -12.8281 56.8368 1 7 235
1954057S10061 1954 8 SI MM NOT_NAMED 1954-02-26 18:00:00 TS -13.0000 56.6000 main 702 674 O________OO___ jtwc_sh SH091954 -13.0000 56.6000 -1 -13.0000 56.6000 TC 25 -13.0000 56.6000 1 6 237
1954057S10061 1954 8 SI MM NOT_NAMED 1954-02-26 21:00:00 TS -13.1607 56.3381 main 664 640 P________PP___ SH091954 -13.1574 56.3499 -1 -13.1574 56.3499 TC 25 -13.1673 56.3144 1 6 239
1954057S10061 1954 8 SI MM NOT_NAMED 1954-02-27 00:00:00 TS -13.3049 56.0807 main 640 605 O________OP___ jtwc_sh SH091954 -13.3000 56.1000 -1 -13.3000 56.1000 TC 25 -13.3147 56.0421 1 6 242
1954057S10061 1954 8 SI MM NOT_NAMED 1954-02-27 03:00:00 TS -13.4466 55.7962 main 605 567 P________PP___ SH091954 -13.4425 55.8074 -1 -13.4425 55.8074 TC 25 -13.4548 55.7738 1 6 242
1954057S10061 1954 8 SI MM NOT_NAMED 1954-02-27 06:00:00 TS -13.6000 55.5000 main 567 529 O________OO___ jtwc_sh SH091954 -13.6000 55.5000 -1 -13.6000 55.5000 TC 25 -13.6000 55.5000 1 7 239
1954057S10061 1954 8 SI MM NOT_NAMED 1954-02-27 09:00:00 TS -13.7975 55.1849 main 529 492 P________PP___ SH091954 -13.8000 55.2000 -1 -13.8000 55.2000 TC 25 -13.7924 55.1547 1 7 237
1954057S10061 1954 8 SI MM NOT_NAMED 1954-02-27 12:00:00 TS -13.9959 54.8702 main 492 455 O________OP___ jtwc_sh SH091954 -14.0000 54.9000 -1 -14.0000 54.9000 TC 25 -13.9878 54.8105 1 7 239
1954057S10061 1954 8 SI MM NOT_NAMED 1954-02-27 15:00:00 TS -14.1698 54.5403 main 444 421 P________PP___ SH091954 -14.1726 54.5550 -1 -14.1726 54.5550 TC 30 -14.1643 54.5109 1 6 241
1954057S10061 1954 8 SI MM NOT_NAMED 1954-02-27 18:00:00 TS -14.3000 54.3000 main 421 407 O________OO___ jtwc_sh SH091954 -14.3000 54.3000 -1 -14.3000 54.3000 TC 35 -14.3000 54.3000 2 3 235
1954057S10061 1954 8 SI MM NOT_NAMED 1954-02-27 21:00:00 TS -14.3669 54.2448 main 407 407 P________PP___ SH091954 -14.3724 54.2474 -1 -14.3724 54.2474 TC 35 -14.3557 54.2394 2 1 0
1954057S10061 1954 8 SI MM NOT_NAMED 1954-02-28 00:00:00 TS -14.3908 54.2891 main 418 418 O________OP___ jtwc_sh SH091954 -14.4000 54.3000 -1 -14.4000 54.3000 TC 35 -14.3723 54.2672 2 1 104
1954057S10061 1954 8 SI MM NOT_NAMED 1954-02-28 03:00:00 TS -14.3876 54.3405 main 418 418 P________PP___ SH091954 -14.3925 54.3425 -1 -14.3925 54.3425 TC 35 -14.3777 54.3364 2 1 95
1954057S10061 1954 8 SI MM NOT_NAMED 1954-02-28 06:00:00 TS -14.4000 54.4000 main 428 426 O________OO___ jtwc_sh SH091954 -14.4000 54.4000 -1 -14.4000 54.4000 TC 35 -14.4000 54.4000 2 2 130
1954057S10061 1954 8 SI MM NOT_NAMED 1954-02-28 09:00:00 TS -14.4855 54.4596 main 437 435 P________PP___ SH091954 -14.4850 54.4725 -1 -14.4850 54.4725 TC 35 -14.4864 54.4340 2 2 158
1954057S10061 1954 8 SI MM NOT_NAMED 1954-02-28 12:00:00 TS -14.5974 54.4825 main 435 422 O________OP___ jtwc_sh SH091954 -14.6000 54.5000 -1 -14.6000 54.5000 TC 35 -14.5922 54.4474 2 2 182
1954057S10061 1954 8 SI MM NOT_NAMED 1954-02-28 15:00:00 TS -14.7056 54.4340 main 422 410 P________PP___ SH091954 -14.7075 54.4450 -1 -14.7075 54.4450 TC 35 -14.7019 54.4121 2 3 221
1954057S10061 1954 8 SI MM NOT_NAMED 1954-02-28 18:00:00 TS -14.8000 54.3000 main 410 389 O________OO___ jtwc_sh SH091954 -14.8000 54.3000 -1 -14.8000 54.3000 TC 35 -14.8000 54.3000 2 4 247
1954057S10061 1954 8 SI MM NOT_NAMED 1954-02-28 21:00:00 TS -14.8517 54.0859 main 388 356 P________PP___ SH091954 -14.8575 54.0875 -1 -14.8575 54.0875 TC 35 -14.8402 54.0829 2 5 259
1954057S10061 1954 8 SI MM NOT_NAMED 1954-03-01 00:00:00 TS -14.8901 53.7965 main 356 324 O________OP___ jtwc_sh SH091954 -14.9000 53.8000 -1 -14.9000 53.8000 TC 35 -14.8702 53.7896 2 6 263
1954057S10061 1954 8 SI MM NOT_NAMED 1954-03-01 03:00:00 TS -14.9234 53.4554 main 324 280 P________PP___ SH091954 -14.9275 53.4574 -1 -14.9275 53.4574 TC 35 -14.9151 53.4515 2 7 261
1954057S10061 1954 8 SI MM NOT_NAMED 1954-03-01 06:00:00 TS -15.0000 53.1000 main 280 246 O________OO___ jtwc_sh SH091954 -15.0000 53.1000 -1 -15.0000 53.1000 TC 35 -15.0000 53.1000 2 7 249
1954057S10061 1954 8 SI MM NOT_NAMED 1954-03-01 09:00:00 TS -15.1719 52.7968 main 246 214 P________PP___ SH091954 -15.1774 52.8000 -1 -15.1774 52.8000 TC 35 -15.1608 52.7904 2 7 237
1954057S10061 1954 8 SI MM NOT_NAMED 1954-03-01 12:00:00 TS -15.3874 52.4909 main 214 182 O________OP___ jtwc_sh SH091954 -15.4000 52.5000 -1 -15.4000 52.5000 TC 35 -15.3622 52.4726 2 8 235
1954057S10061 1954 8 SI MM NOT_NAMED 1954-03-01 15:00:00 TS -15.5992 52.1528 main 183 146 P________PP___ SH091954 -15.6075 52.1575 -1 -15.6075 52.1575 TC 35 -15.5826 52.1435 2 8 238
1954057S10061 1954 8 SI MM NOT_NAMED 1954-03-01 18:00:00 TS -15.8000 51.8000 main 146 120 O________OO___ jtwc_sh SH091954 -15.8000 51.8000 -1 -15.8000 51.8000 TC 35 -15.8000 51.8000 2 8 242
1954057S10061 1954 8 SI MM NOT_NAMED 1954-03-01 21:00:00 TS -15.9565 51.4593 main 125 91 P________PP___ SH091954 -15.9499 51.4573 -1 -15.9499 51.4573 TC 35 -15.9696 51.4632 2 7 245
1954057S10061 1954 8 SI MM NOT_NAMED 1954-03-02 00:00:00 TS -16.1115 51.1030 main 91 63 O________OP___ jtwc_sh SH091954 -16.1000 51.1000 -1 -16.1000 51.1000 TC 35 -16.1344 51.1091 2 8 245
1954057S10061 1954 8 SI MM NOT_NAMED 1954-03-02 03:00:00 TS -16.2922 50.7234 main 63 49 P________PP___ SH091954 -16.2849 50.7224 -1 -16.2849 50.7224 TC 35 -16.3070 50.7255 2 9 243
1954057S10061 1954 8 SI MM NOT_NAMED 1954-03-02 06:00:00 TS -16.5000 50.3000 main 53 10 O________OO___ jtwc_sh SH091954 -16.5000 50.3000 -1 -16.5000 50.3000 TC 35 -16.5000 50.3000 2 10 243
1954057S10061 1954 8 SI MM NOT_NAMED 1954-03-02 09:00:00 TS -16.7365 49.8170 main 10 0 P________PP___ SH091954 -16.7424 49.8224 -1 -16.7424 49.8224 TC 35 -16.7247 49.8060 2 11 243
1954057S10061 1954 8 SI MM NOT_NAMED 1954-03-02 12:00:00 TS -16.9901 49.2909 main 0 0 O________OP___ jtwc_sh SH091954 -17.0000 49.3000 -1 -17.0000 49.3000 TC 35 -16.9704 49.2726 2 11 244
1954057S10061 1954 8 SI MM NOT_NAMED 1954-03-02 15:00:00 TS -17.2436 48.7425 main 0 0 P________PP___ SH091954 -17.2500 48.7499 -1 -17.2500 48.7499 TC 35 -17.2309 48.7278 2 12 244
1954057S10061 1954 8 SI MM NOT_NAMED 1954-03-02 18:00:00 TS -17.5000 48.2000 main 0 0 O________OO___ jtwc_sh SH091954 -17.5000 48.2000 -1 -17.5000 48.2000 TC 35 -17.5000 48.2000 2 11 244
1954057S10061 1954 8 SI MM NOT_NAMED 1954-03-02 21:00:00 TS -17.7442 47.6754 main 0 0 P________PP___ SH091954 -17.7424 47.6773 -1 -17.7424 47.6773 TC 30 -17.7476 47.6716 2 11 242
1954057S10061 1954 8 SI MM NOT_NAMED 1954-03-03 00:00:00 TS -18.0018 47.1909 main 0 0 O________OP___ jtwc_sh SH091954 -18.0000 47.2000 -1 -18.0000 47.2000 TC 25 -18.0053 47.1727 2 10 239
1954057S10061 1954 8 SI MM NOT_NAMED 1954-03-03 03:00:00 TS -18.2801 46.7491 main 0 0 P________PP___ SH091954 -18.2775 46.7549 -1 -18.2775 46.7549 TC 25 -18.2853 46.7374 2 10 231
1954057S10061 1954 8 SI MM NOT_NAMED 1954-03-03 06:00:00 TS -18.6000 46.4000 main 0 0 O________OO___ jtwc_sh SH091954 -18.6000 46.4000 -1 -18.6000 46.4000 TC 25 -18.6000 46.4000 1 9 219
1954057S10061 1954 8 SI MM NOT_NAMED 1954-03-03 09:00:00 TS -18.9804 46.1436 main 0 0 P________PP___ SH091954 -18.9849 46.1400 -1 -18.9849 46.1400 TC 25 -18.9715 46.1506 1 9 205
1954057S10061 1954 8 SI MM NOT_NAMED 1954-03-03 12:00:00 TS -19.3922 46.0017 main 0 0 O________OP___ jtwc_sh SH091954 -19.4000 46.0000 -1 -19.4000 46.0000 TC 25 -19.3766 46.0052 1 8 192
1954057S10061 1954 8 SI MM NOT_NAMED 1954-03-03 15:00:00 TS -19.8028 45.9507 main 0 0 P________PP___ SH091954 -19.8074 45.9474 -1 -19.8074 45.9474 TC 25 -19.7935 45.9571 1 8 181
1954057S10061 1954 8 SI MM NOT_NAMED 1954-03-03 18:00:00 TS -20.2000 46.0000 main 0 0 O________OO___ jtwc_sh SH091954 -20.2000 46.0000 -1 -20.2000 46.0000 TC 25 -20.2000 46.0000 1 8 169
1954057S10061 1954 8 SI MM NOT_NAMED 1954-03-03 21:00:00 TS -20.5638 46.1047 main 0 0 P________PP___ SH091954 -20.5575 46.1125 -1 -20.5575 46.1125 TC 25 -20.5764 46.0889 1 8 159
1954057S10061 1954 8 SI MM NOT_NAMED 1954-03-04 00:00:00 TS -20.9124 46.2882 main 0 0 O________OP___ jtwc_sh SH091954 -20.9000 46.3000 -1 -20.9000 46.3000 TC 25 -20.9373 46.2645 1 8 151
1954057S10061 1954 8 SI MM NOT_NAMED 1954-03-04 03:00:00 TS -21.2648 46.5160 main 0 0 P________PP___ SH091954 -21.2574 46.5201 -1 -21.2574 46.5201 TC 25 -21.2795 46.5079 1 8 145
1954057S10061 1954 8 SI MM NOT_NAMED 1954-03-04 06:00:00 TS -21.6000 46.8000 main 0 0 O________OO___ jtwc_sh SH091954 -21.6000 46.8000 -1 -21.6000 46.8000 TC 25 -21.6000 46.8000 1 9 139
1954057S10061 1954 8 SI MM NOT_NAMED 1954-03-04 09:00:00 TS -21.9129 47.1230 main 0 0 P________PP___ SH091954 -21.9150 47.1350 -1 -21.9150 47.1350 TC 25 -21.9088 47.0988 1 9 133
1954057S10061 1954 8 SI MM NOT_NAMED 1954-03-04 12:00:00 TS -22.1983 47.4800 main 0 0 O________OP___ jtwc_sh SH091954 -22.2000 47.5000 -1 -22.2000 47.5000 TC 25 -22.1950 47.4401 1 9 130
1954057S10061 1954 8 SI MM NOT_NAMED 1954-03-04 15:00:00 TS -22.4628 47.8372 main 0 0 P________PP___ SH091954 -22.4649 47.8501 -1 -22.4649 47.8501 TC 25 -22.4587 47.8113 1 8 127
1954057S10061 1954 8 SI MM NOT_NAMED 1954-03-04 18:00:00 TS -22.7000 48.2000 main 38 38 O________OO___ jtwc_sh SH091954 -22.7000 48.2000 -1 -22.7000 48.2000 TC 25 -22.7000 48.2000 1 8 125
1954057S10061 1954 8 SI MM NOT_NAMED 1954-03-04 21:00:00 TS -22.9159 48.5441 main 71 71 P________PP___ SH091954 -22.9073 48.5352 -1 -22.9073 48.5352 TC 25 -22.9331 48.5617 1 8 122
1954057S10061 1954 8 SI MM NOT_NAMED 1954-03-05 00:00:00 TS -23.1147 48.9135 main 114 114 O________OP___ jtwc_sh SH091954 -23.1000 48.9000 -1 -23.1000 48.9000 TC 25 -23.1440 48.9406 1 8 119
1954057S10061 1954 8 SI MM NOT_NAMED 1954-03-05 03:00:00 TS -23.3159 49.3298 main 159 159 P________PP___ SH091954 -23.3074 49.3201 -1 -23.3074 49.3201 TC 25 -23.3329 49.3492 1 9 115
1954057S10061 1954 8 SI MM NOT_NAMED 1954-03-05 06:00:00 TS -23.5000 49.8000 main 214 214 O________OO___ jtwc_sh SH091954 -23.5000 49.8000 -1 -23.5000 49.8000 TC 25 -23.5000 49.8000 1 10 111
1954057S10061 1954 8 SI MM NOT_NAMED 1954-03-05 09:00:00 TS -23.6616 50.3284 main 267 267 P________PP___ SH091954 -23.6650 50.3351 -1 -23.6650 50.3351 TC 25 -23.6550 50.3152 1 10 107
1954057S10061 1954 8 SI MM NOT_NAMED 1954-03-05 12:00:00 TS -23.7960 50.8901 main 328 328 O________OP___ jtwc_sh SH091954 -23.8000 50.9000 -1 -23.8000 50.9000 TC 25 -23.7879 50.8702 1 11 104
1954057S10061 1954 8 SI MM NOT_NAMED 1954-03-05 15:00:00 TS -23.9105 51.4518 main 390 390 P________PP___ SH091954 -23.9149 51.4576 -1 -23.9149 51.4576 TC 25 -23.9018 51.4401 1 10 101
1954057S10061 1954 8 SI MM NOT_NAMED 1954-03-05 18:00:00 TS -24.0000 52.0000 main 442 423 O________OO___ jtwc_sh SH091954 -24.0000 52.0000 -1 -24.0000 52.0000 TC 25 -24.0000 52.0000 1 10 99
1954057S10061 1954 8 SI MM NOT_NAMED 1954-03-05 21:00:00 TS -24.0542 52.4943 main 424 398 P________PP___ SH091954 -24.0498 52.5077 -1 -24.0498 52.5077 TC 25 -24.0630 52.4674 1 9 97
1954057S10061 1954 8 SI MM NOT_NAMED 1954-03-06 00:00:00 TS -24.1056 52.9759 main 391 374 O________OP___ jtwc_sh SH091954 -24.1000 53.0000 -1 -24.1000 53.0000 TC 25 -24.1169 52.9277 1 9 98
1954057S10061 1954 8 SI MM NOT_NAMED 1954-03-06 03:00:00 TS -24.1805 53.4499 main 378 358 P________PP___ SH091954 -24.1769 53.4628 -1 -24.1769 53.4628 TC 25 -24.1876 53.4240 1 10 102
1954057S10061 1954 8 SI MM NOT_NAMED 1954-03-06 06:00:00 TS -24.3000 54.0000 main 360 350 O________OO___ jtwc_sh SH091954 -24.3000 54.0000 -1 -24.3000 54.0000 TC 25 -24.3000 54.0000 1 12 105
1954057S10061 1954 8 SI MM NOT_NAMED 1954-03-06 09:00:00 TS -24.4793 54.7081 main 358 351 P________PP___ SH091954 -24.4774 54.6976 -1 -24.4774 54.6976 TC 25 -24.4831 54.7290 1 14 106
1954057S10061 1954 8 SI MM NOT_NAMED 1954-03-06 12:00:00 TS -24.7023 55.5129 main 369 368 O________OP___ jtwc_sh SH091954 -24.7000 55.5000 -1 -24.7000 55.5000 TC 25 -24.7068 55.5388 1 16 107
1954057S10061 1954 8 SI MM NOT_NAMED 1954-03-06 15:00:00 TS -24.9507 56.3647 main 410 410 P________PP___ SH091954 -24.9501 56.3573 -1 -24.9501 56.3573 TC 25 -24.9517 56.3793 1 16 108
1954057S10061 1954 8 SI MM NOT_NAMED 1954-03-06 18:00:00 TS -25.2000 57.2000 main 455 455 O________OO___ jtwc_sh SH091954 -25.2000 57.2000 -1 -25.2000 57.2000 TC 25 -25.2000 57.2000 1 15 108
1954057S10061 1954 8 SI MM NOT_NAMED 1954-03-06 21:00:00 TS -25.4122 57.9357 main 504 504 P________PP___ SH091954 -25.3993 57.9231 -1 -25.3993 57.9231 TC 25 -25.4379 57.9611 1 14 108
1954057S10061 1954 8 SI MM NOT_NAMED 1954-03-07 00:00:00 TS -25.6218 58.6230 main 558 558 O________OP___ jtwc_sh SH091954 -25.6000 58.6000 -1 -25.6000 58.6000 TC 25 -25.6653 58.6692 1 13 110
1954057S10061 1954 8 SI MM NOT_NAMED 1954-03-07 03:00:00 TS -25.8540 59.3087 main 625 625 P________PP___ SH091954 -25.8384 59.2917 -1 -25.8384 59.2917 TC 25 -25.8852 59.3427 1 13 111
1954057S10061 1954 8 SI MM NOT_NAMED 1954-03-07 06:00:00 TS -26.1000 60.0000 main 668 O________OO___ jtwc_sh SH091954 -26.1000 60.0000 -1 -26.1000 60.0000 TC 25 -26.1000 60.0000 1 13 112

IBTrACS Databaseについて

本データベースは、米国NOAAが公開する1842年以降の世界の熱帯低気圧のベストトラックデータアーカイブInternational Best Track Archive for Climate Stewardship (IBTrACS)を、ウェブで閲覧しやすい形式に変換したものです。

最終更新日:2021-12-08